Other Surface Observations
Issued by NWS Great Falls, MT

Home | Current Version | Previous Version | Text Only | Print | Product List | Glossary On
Versions: 1 2 3 4 5 6 7 8 9 10 11 12 13 14 15 16 17 18 19 20 21 22 23 24 25 26 27 28 29 30 31 32 33 34 35 36 37 38 39 40 41 42 43 44 45 46 47 48 49 50
312
SXUS55 KTFX 211559
OSOTFX
AREA AWOS OBSERVATIONS
NATIONAL WEATHER SERVICE GREAT FALLS MT
0859 AM MST TUE FEB 21 2017

METAR KPWD 211600Z AUTO 06006KT 9SM 00/M01 A2963 RMK PLENTYWOOD
METAR KPO1 211600Z AUTO 15003KT 10SM M01/M03 A2968 RMK POPLAR
METAR K1S3 211600Z AUTO 00000KT 1/2SM 08/05 A2969 RMK FORSYTH
METAR KS71 211600Z AUTO 00000KT 10SM 03/M01 A2967 RMK CHINOOK
METAR K79S 211600Z AUTO 10SM 02/00 A2965 RMK FORT BENTON
METAR K38S 211600Z AUTO 16008KT 10SM 04/01 A2967 RMK DEER LODGE
METAR K3U3 211600Z AUTO 15010G18KT 5SM 04/01 A2968 RMK ANACONDA
METAR K6S5 211600Z AUTO 17004KT 10SM 02/02 A2966 RMK HAMILTON
METAR KS59 211600Z AUTO 00000KT 1 3/4SM M01/M01 A2965 RMK LIBBY
METAR K88M 211600Z AUTO 00000KT 10SM M01/M02 A2966 RMK EUREKA



USA.gov is the U.S. government's official web portal to all federal, state and local government web resources and services.